Time;durP1;ratioP1;P1;durP2;ratioP2;P2;SDS_P1;SDS_P2;PMS_P1;PMS_P2;Temp;Humidity;BMP_temperature;BMP_pressure;BME280_temperature;BME280_humidity;BME280_pressure;Samples;Min_cycle;Max_cycle;Signal;HPM_P1;HPM_P2
2024/03/10 00:00:40;;;;;;;34.50;20.83;;;;;;;-146.25;100.00;52504.03;2063396;28;36178;-64
2024/03/10 00:01:42;;;;;;;34.38;21.08;;;;;;;-146.25;100.00;52548.66;2072464;28;20050;-65
2024/03/10 00:02:44;;;;;;;34.80;21.60;;;;;;;-146.25;100.00;52516.22;2079654;28;29013;-64
2024/03/10 00:03:46;;;;;;;32.72;20.75;;;;;;;-146.25;100.00;52477.69;2078795;28;34147;-64
2024/03/10 00:04:48;;;;;;;35.53;20.35;;;;;;;-146.25;100.00;52514.19;2079032;28;35957;-65
2024/03/10 00:05:51;;;;;;;36.95;21.73;;;;;;;-146.25;100.00;52493.91;2079162;28;35174;-64
2024/03/10 00:06:54;;;;;;;33.38;20.83;;;;;;;-146.25;100.00;52534.47;2080590;28;20053;-64
2024/03/10 00:07:58;;;;;;;32.75;20.67;;;;;;;-146.25;100.00;52491.88;2078933;28;33068;-64
2024/03/10 00:09:02;;;;;;;32.83;20.55;;;;;;;-146.25;100.00;52528.38;2079928;28;21468;-64
2024/03/10 00:10:04;;;;;;;35.42;21.58;;;;;;;-146.25;100.00;52508.09;2079946;28;20046;-64
2024/03/10 00:11:06;;;;;;;34.00;21.30;;;;;;;-146.25;100.00;52506.06;2080032;28;36821;-64
2024/03/10 00:12:08;;;;;;;32.95;21.00;;;;;;;-146.25;100.00;52495.94;2079662;28;34511;-66
2024/03/10 00:13:10;;;;;;;32.13;20.00;;;;;;;-146.25;100.00;52485.81;2080177;28;20856;-64
2024/03/10 00:14:12;;;;;;;30.83;19.45;;;;;;;-146.25;100.00;52475.66;2079104;28;37899;-64
2024/03/10 00:15:15;;;;;;;32.88;20.73;;;;;;;-146.25;100.00;52510.13;2079012;28;34010;-64
2024/03/10 00:16:17;;;;;;;31.05;19.60;;;;;;;-146.25;100.00;52510.13;2078990;28;32486;-64
2024/03/10 00:17:20;;;;;;;33.85;21.15;;;;;;;-146.25;100.00;52502.03;2079849;28;35292;-64
2024/03/10 00:18:22;;;;;;;33.85;20.42;;;;;;;-146.25;100.00;52526.34;2079515;28;33577;-64
2024/03/10 00:19:26;;;;;;;34.78;20.90;;;;;;;-146.25;100.00;52508.09;2079766;28;34774;-64
2024/03/10 00:20:29;;;;;;;35.33;20.65;;;;;;;-146.25;100.00;52487.81;2070553;28;33296;-65
2024/03/10 00:21:33;;;;;;;32.70;20.98;;;;;;;-146.25;100.00;52502.03;2071500;28;36132;-64
2024/03/10 00:22:39;;;;;;;35.92;19.98;;;;;;;-146.25;100.00;52530.41;2079477;28;37758;-66
2024/03/10 00:23:41;;;;;;;32.17;20.63;;;;;;;-146.25;100.00;52489.84;2080475;28;20089;-64
2024/03/10 00:24:43;;;;;;;35.05;20.27;;;;;;;-146.25;100.00;52502.03;2079270;28;37054;-64
2024/03/10 00:25:45;;;;;;;34.58;21.00;;;;;;;-146.25;100.00;52495.94;2079818;28;35654;-64
2024/03/10 00:26:46;;;;;;;32.53;20.25;;;;;;;-146.25;100.00;52510.13;2079335;28;34860;-64
2024/03/10 00:27:49;;;;;;;35.92;21.15;;;;;;;-146.25;100.00;52489.84;2080136;28;29514;-64
2024/03/10 00:28:51;;;;;;;36.53;21.25;;;;;;;-146.25;100.00;52514.19;2080043;28;20163;-66
2024/03/10 00:29:53;;;;;;;33.67;20.85;;;;;;;-146.25;100.00;52518.25;2071307;28;31496;-64
2024/03/10 00:30:55;;;;;;;33.70;20.40;;;;;;;-146.25;100.00;52522.28;2071297;28;27471;-66
2024/03/10 00:31:57;;;;;;;34.08;20.45;;;;;;;-146.25;100.00;52493.91;2080625;28;20112;-64
2024/03/10 00:32:59;;;;;;;35.97;20.30;;;;;;;-146.25;100.00;52502.03;2079839;28;20100;-64
2024/03/10 00:34:01;;;;;;;35.13;22.10;;;;;;;-146.25;100.00;52514.19;2079807;28;34591;-66
2024/03/10 00:35:08;;;;;;;33.25;20.20;;;;;;;-146.25;100.00;52502.03;2070399;28;30774;-65
2024/03/10 00:36:10;;;;;;;32.88;19.85;;;;;;;-146.25;100.00;52449.31;2072413;28;34247;-64
2024/03/10 00:37:12;;;;;;;34.78;20.08;;;;;;;-146.25;100.00;52489.84;2079462;28;35274;-66
2024/03/10 00:38:14;;;;;;;34.72;21.05;;;;;;;-146.25;100.00;52491.88;2080218;28;20034;-65
2024/03/10 00:39:16;;;;;;;34.65;21.17;;;;;;;-146.25;100.00;52489.84;2079401;28;38255;-64
2024/03/10 00:40:17;;;;;;;35.20;21.48;;;;;;;-146.25;100.00;52518.25;2080390;28;21017;-66
2024/03/10 00:41:22;;;;;;;33.25;21.08;;;;;;;-146.25;100.00;52504.03;2078905;28;35656;-65
2024/03/10 00:42:24;;;;;;;35.65;21.30;;;;;;;-146.25;100.00;52508.09;2079352;28;37971;-65
2024/03/10 00:43:26;;;;;;;37.03;21.65;;;;;;;-146.25;100.00;52477.69;2079478;28;20038;-66
2024/03/10 00:44:30;;;;;;;34.85;21.70;;;;;;;-146.25;100.00;52536.50;2078969;28;36857;-66
2024/03/10 00:45:34;;;;;;;36.17;21.98;;;;;;;-146.25;100.00;52475.66;2079502;28;30845;-64
2024/03/10 00:46:36;;;;;;;34.88;20.58;;;;;;;-146.25;100.00;52481.75;2079961;28;33509;-66
2024/03/10 00:47:38;;;;;;;36.45;22.33;;;;;;;-146.25;100.00;52485.81;2079133;28;37430;-65
2024/03/10 00:48:40;;;;;;;35.00;21.63;;;;;;;-146.25;100.00;52491.88;2080002;28;32237;-64
2024/03/10 00:49:42;;;;;;;36.03;21.85;;;;;;;-146.25;100.00;52510.13;2078873;28;33157;-65
2024/03/10 00:50:46;;;;;;;35.25;21.45;;;;;;;-146.25;100.00;52506.06;2079142;28;34878;-64
2024/03/10 00:51:48;;;;;;;35.80;21.85;;;;;;;-146.25;100.00;52485.81;2078903;28;36109;-66
2024/03/10 00:52:51;;;;;;;35.47;21.83;;;;;;;-146.25;100.00;52465.53;2079818;28;20042;-66
2024/03/10 00:53:52;;;;;;;34.63;20.88;;;;;;;-146.25;100.00;52522.28;2078704;28;38363;-66
2024/03/10 00:54:54;;;;;;;37.40;21.80;;;;;;;-146.25;100.00;52497.97;2079840;28;33654;-66
2024/03/10 00:55:56;;;;;;;39.67;22.25;;;;;;;-146.25;100.00;52500.00;2079485;28;35881;-66
2024/03/10 00:56:58;;;;;;;35.95;21.45;;;;;;;-146.25;100.00;52471.59;2079360;28;37474;-66
2024/03/10 00:58:02;;;;;;;37.88;21.90;;;;;;;-146.25;100.00;52508.09;2080049;28;20838;-66
2024/03/10 00:59:04;;;;;;;35.83;22.20;;;;;;;-146.25;100.00;52493.91;2079590;28;34330;-66
2024/03/10 01:00:10;;;;;;;37.00;22.15;;;;;;;-146.25;100.00;52497.97;2079579;28;33352;-66
2024/03/10 01:01:12;;;;;;;37.40;22.95;;;;;;;-146.25;100.00;52491.88;2079721;28;33452;-66
2024/03/10 01:02:14;;;;;;;38.13;22.83;;;;;;;-146.25;100.00;52467.56;2078980;28;35343;-66
2024/03/10 01:03:16;;;;;;;38.20;22.90;;;;;;;-146.25;100.00;52514.19;2079627;28;20049;-64
2024/03/10 01:04:18;;;;;;;39.03;22.38;;;;;;;-146.25;100.00;52504.03;2078702;28;35732;-63
2024/03/10 01:05:20;;;;;;;39.55;23.08;;;;;;;-146.25;100.00;52483.78;2071553;28;30485;-66
2024/03/10 01:06:23;;;;;;;36.80;22.83;;;;;;;-146.25;100.00;52528.38;2071065;28;20789;-64
2024/03/10 01:07:25;;;;;;;34.85;22.38;;;;;;;-146.25;100.00;52481.75;2079737;28;36288;-65
2024/03/10 01:08:27;;;;;;;34.33;21.70;;;;;;;-146.25;100.00;52538.53;2079606;28;20037;-64
2024/03/10 01:09:29;;;;;;;36.17;21.85;;;;;;;-146.25;100.00;52514.19;2078915;28;35420;-64
2024/03/10 01:10:31;;;;;;;37.28;23.15;;;;;;;-146.25;100.00;52485.81;2078832;28;34927;-64
2024/03/10 01:11:37;;;;;;;39.00;22.35;;;;;;;-146.25;100.00;52497.97;2079889;28;32253;-65
2024/03/10 01:12:39;;;;;;;37.67;23.08;;;;;;;-146.25;100.00;52522.28;2079561;28;36140;-66
2024/03/10 01:13:42;;;;;;;38.13;22.92;;;;;;;-146.25;100.00;52473.63;2080334;28;31935;-66
2024/03/10 01:14:44;;;;;;;41.17;22.83;;;;;;;-146.25;100.00;52481.75;2079104;28;33702;-66
2024/03/10 01:15:45;;;;;;;41.33;23.90;;;;;;;-146.25;100.00;52514.19;2080259;28;20046;-64
2024/03/10 01:16:48;;;;;;;40.28;23.05;;;;;;;-146.25;100.00;52534.47;2079155;28;36321;-64
2024/03/10 01:17:50;;;;;;;37.88;22.45;;;;;;;-146.25;100.00;52481.75;2079877;28;36231;-64
2024/03/10 01:18:52;;;;;;;40.13;24.17;;;;;;;-146.25;100.00;52510.13;2079413;28;34954;-65
2024/03/10 01:19:54;;;;;;;33.95;20.42;;;;;;;-146.25;100.00;52491.88;2079223;28;37547;-65
2024/03/10 01:20:56;;;;;;;36.60;22.17;;;;;;;-146.25;100.00;52510.13;2079552;28;33422;-65
2024/03/10 01:22:01;;;;;;;38.88;23.45;;;;;;;-146.25;100.00;52508.09;2079395;28;33179;-64
2024/03/10 01:23:03;;;;;;;39.25;23.65;;;;;;;-146.25;100.00;52504.03;2078823;28;37758;-65
2024/03/10 01:24:05;;;;;;;39.20;22.73;;;;;;;-146.25;100.00;52550.69;2079464;28;32975;-65
2024/03/10 01:25:09;;;;;;;37.92;23.80;;;;;;;-146.25;100.00;52489.84;2079008;28;39806;-65
2024/03/10 01:26:10;;;;;;;39.90;23.58;;;;;;;-146.25;100.00;52522.28;2079347;28;30340;-65
2024/03/10 01:27:12;;;;;;;39.15;24.15;;;;;;;-146.25;100.00;52514.19;2078591;28;36630;-65
2024/03/10 01:28:14;;;;;;;35.95;23.58;;;;;;;-146.25;100.00;52497.97;2080303;28;20167;-65
2024/03/10 01:29:16;;;;;;;38.95;23.50;;;;;;;-146.25;100.00;52518.25;2078677;28;33507;-65
2024/03/10 01:30:20;;;;;;;40.30;23.67;;;;;;;-146.25;100.00;52522.28;2078940;28;33422;-65
2024/03/10 01:31:22;;;;;;;39.30;23.48;;;;;;;-146.25;100.00;52542.56;2078701;28;32011;-65
2024/03/10 01:32:24;;;;;;;39.22;24.80;;;;;;;-146.25;100.00;52510.13;2079296;28;37447;-66
2024/03/10 01:33:26;;;;;;;44.00;24.80;;;;;;;-146.25;100.00;52506.06;2079262;28;39317;-65
2024/03/10 01:34:31;;;;;;;41.60;25.00;;;;;;;-146.25;100.00;52497.97;2079409;28;34557;-65
2024/03/10 01:35:33;;;;;;;40.28;24.08;;;;;;;-146.25;100.00;52506.06;2078577;28;37387;-65
2024/03/10 01:36:35;;;;;;;39.17;24.60;;;;;;;-146.25;100.00;52530.41;2080550;28;20545;-65
2024/03/10 01:37:38;;;;;;;40.08;24.83;;;;;;;-146.25;100.00;52506.06;2079213;28;36383;-65
2024/03/10 01:38:39;;;;;;;39.28;24.10;;;;;;;-146.25;100.00;52493.91;2080265;28;35331;-65
2024/03/10 01:39:41;;;;;;;40.83;25.05;;;;;;;-146.25;100.00;52522.28;2081239;28;20057;-65
2024/03/10 01:40:43;;;;;;;41.58;23.42;;;;;;;-146.25;100.00;52491.88;2080919;28;36124;-66
2024/03/10 01:41:45;;;;;;;43.05;25.45;;;;;;;-146.25;100.00;52481.75;2081035;28;20831;-65
2024/03/10 01:42:55;;;;;;;40.17;24.52;;;;;;;-146.25;100.00;52534.47;2080190;28;37142;-66
2024/03/10 01:43:57;;;;;;;41.85;24.85;;;;;;;-146.25;100.00;52518.25;2080034;28;38348;-66
2024/03/10 01:44:59;;;;;;;42.30;24.92;;;;;;;-146.25;100.00;52500.00;2080648;28;34690;-65
2024/03/10 01:46:07;;;;;;;41.45;25.02;;;;;;;-146.25;100.00;52510.13;2080493;28;38339;-65
2024/03/10 01:47:10;;;;;;;41.72;24.33;;;;;;;-146.25;100.00;52528.38;2082074;28;20328;-65
2024/03/10 01:48:12;;;;;;;41.28;24.42;;;;;;;-146.25;100.00;52479.72;2080890;28;38724;-65
2024/03/10 01:49:14;;;;;;;43.42;25.45;;;;;;;-146.25;100.00;52518.25;2080918;28;35142;-65
2024/03/10 01:50:17;;;;;;;40.30;23.38;;;;;;;-146.25;100.00;52538.53;2080378;28;20045;-65
2024/03/10 01:51:23;;;;;;;42.53;26.25;;;;;;;-146.25;100.00;52522.28;2080129;28;33334;-65
2024/03/10 01:52:25;;;;;;;44.25;25.70;;;;;;;-146.25;100.00;52467.56;2080339;28;29600;-65
2024/03/10 01:53:31;;;;;;;42.38;24.85;;;;;;;-146.25;100.00;52520.28;2081238;28;34198;-65
2024/03/10 01:54:35;;;;;;;45.33;26.23;;;;;;;-146.25;100.00;52512.16;2080100;28;35989;-65
2024/03/10 01:55:37;;;;;;;44.75;26.10;;;;;;;-146.25;100.00;52530.41;2080093;28;34985;-65
2024/03/10 01:56:40;;;;;;;45.38;25.85;;;;;;;-146.25;100.00;52518.25;2079841;28;31722;-65
2024/03/10 01:57:44;;;;;;;42.53;24.92;;;;;;;-146.25;100.00;52528.38;2080383;28;36558;-66
2024/03/10 01:58:46;;;;;;;43.03;25.90;;;;;;;-146.25;100.00;52522.28;2081031;28;34458;-65
2024/03/10 01:59:49;;;;;;;43.35;27.38;;;;;;;-146.25;100.00;52506.06;2080703;28;37224;-65
2024/03/10 02:00:51;;;;;;;45.58;26.25;;;;;;;-146.25;100.00;52455.38;2072517;28;20085;-65
2024/03/10 02:01:54;;;;;;;45.53;27.27;;;;;;;-146.25;100.00;52506.06;2072116;28;33672;-65
2024/03/10 02:02:57;;;;;;;44.08;25.08;;;;;;;-146.25;100.00;52477.69;2079987;28;34990;-66
2024/03/10 02:04:00;;;;;;;43.65;25.33;;;;;;;-146.25;100.00;52508.09;2080242;28;31281;-65
2024/03/10 02:05:04;;;;;;;42.65;26.33;;;;;;;-146.25;100.00;52530.41;2079512;28;36176;-65
2024/03/10 02:06:09;;;;;;;44.33;26.50;;;;;;;-146.25;100.00;52514.19;2080906;28;20041;-65
2024/03/10 02:07:13;;;;;;;42.50;25.55;;;;;;;-146.25;100.00;52520.28;2080290;28;34094;-65
2024/03/10 02:08:15;;;;;;;46.95;25.83;;;;;;;-146.25;100.00;52510.13;2080018;28;34915;-65
2024/03/10 02:09:18;;;;;;;49.78;26.55;;;;;;;-146.25;100.00;52508.09;2079891;28;33452;-65
2024/03/10 02:10:21;;;;;;;47.72;27.40;;;;;;;-146.25;100.00;52510.13;2080505;28;33056;-65
2024/03/10 02:11:23;;;;;;;42.65;27.40;;;;;;;-146.25;100.00;52508.09;2081325;28;20128;-65
2024/03/10 02:12:24;;;;;;;45.28;27.77;;;;;;;-146.25;100.00;52495.94;2080191;28;34376;-65
2024/03/10 02:13:26;;;;;;;44.80;26.45;;;;;;;-146.25;100.00;52520.28;2080427;28;30038;-65
2024/03/10 02:14:28;;;;;;;45.83;26.25;;;;;;;-146.25;100.00;52500.00;2080289;28;32192;-65
2024/03/10 02:15:30;;;;;;;44.10;26.58;;;;;;;-146.25;100.00;52512.16;2071257;28;37217;-65
2024/03/10 02:16:34;;;;;;;47.97;27.48;;;;;;;-146.25;100.00;52495.94;2073093;28;20038;-66
2024/03/10 02:17:36;;;;;;;44.55;25.85;;;;;;;-146.25;100.00;52497.97;2071657;28;34208;-65
2024/03/10 02:18:38;;;;;;;46.17;27.58;;;;;;;-146.25;100.00;52522.28;2072236;28;20041;-65
2024/03/10 02:19:40;;;;;;;45.55;27.23;;;;;;;-146.25;100.00;52487.81;2080523;28;37766;-65
2024/03/10 02:20:43;;;;;;;44.67;24.27;;;;;;;-146.25;100.00;52473.63;2080914;28;32949;-65
2024/03/10 02:21:45;;;;;;;48.17;27.73;;;;;;;-146.25;100.00;52540.53;2080555;28;35056;-65
2024/03/10 02:22:49;;;;;;;45.58;27.23;;;;;;;-146.25;100.00;52520.28;2080845;28;28137;-65
2024/03/10 02:24:11;;;;;;;46.20;28.20;;;;;;;-146.25;100.00;52502.03;2080600;28;32882;-66
2024/03/10 02:25:13;;;;;;;44.70;26.65;;;;;;;-146.25;100.00;52530.41;2106224;22;36873;-64
2024/03/10 02:26:15;;;;;;;50.28;27.83;;;;;;;-146.25;100.00;52506.06;2088712;28;25974;-64
2024/03/10 02:27:17;;;;;;;44.67;27.08;;;;;;;-146.25;100.00;52518.25;2088373;28;35358;-64
2024/03/10 02:28:34;;;;;;;43.75;25.88;;;;;;;-146.25;100.00;52528.38;2098114;28;20044;-64
2024/03/10 02:29:58;;;;;;;46.58;27.88;;;;;;;-146.25;100.00;52481.75;2087881;28;34315;-65
2024/03/10 02:31:08;;;;;;;48.90;27.55;;;;;;;-146.25;100.00;52477.69;2091144;28;33657;-64
2024/03/10 02:47:14;;;;;;;47.50;26.90;;;;;;;-146.25;100.00;52534.47;2088547;28;37679;-64
2024/03/10 02:48:16;;;;;;;50.78;28.20;;;;;;;-146.25;100.00;52510.13;2088883;28;35958;-65
2024/03/10 02:49:18;;;;;;;51.35;28.90;;;;;;;-146.25;100.00;52504.03;2071390;28;36583;-65
2024/03/10 02:50:21;;;;;;;49.70;29.23;;;;;;;-146.25;100.00;52475.66;2070754;28;36925;-64
2024/03/10 02:51:23;;;;;;;46.92;28.00;;;;;;;-146.25;100.00;52536.50;2088732;28;34301;-64
2024/03/10 02:52:25;;;;;;;50.53;29.33;;;;;;;-146.25;100.00;52528.38;2088449;28;36201;-65
2024/03/10 02:53:26;;;;;;;50.42;28.50;;;;;;;-146.25;100.00;52485.81;2089006;28;32358;-64
2024/03/10 02:54:28;;;;;;;50.05;28.30;;;;;;;-146.25;100.00;52493.91;2088411;28;33100;-64
2024/03/10 02:55:35;;;;;;;46.85;28.33;;;;;;;-146.25;100.00;52544.59;2079622;28;37319;-64
2024/03/10 02:56:37;;;;;;;48.03;28.08;;;;;;;-146.25;100.00;52502.03;2075457;28;33357;-64
2024/03/10 02:57:39;;;;;;;47.92;27.95;;;;;;;-146.25;100.00;52514.19;2080217;28;38179;-64
2024/03/10 02:58:43;;;;;;;48.85;29.48;;;;;;;-146.25;100.00;52500.00;2088549;28;33655;-65
2024/03/10 02:59:45;;;;;;;50.28;28.88;;;;;;;-146.25;100.00;52487.81;2088701;28;25870;-64
2024/03/10 03:00:48;;;;;;;50.38;29.13;;;;;;;-146.25;100.00;52485.81;2093100;28;37202;-65
2024/03/10 03:01:50;;;;;;;50.58;29.80;;;;;;;-146.25;100.00;52510.13;2097169;28;30464;-64
2024/03/10 03:02:52;;;;;;;50.40;29.23;;;;;;;-146.25;100.00;52524.31;2096806;28;33828;-64
2024/03/10 03:03:54;;;;;;;48.17;28.30;;;;;;;-146.25;100.00;52502.03;2096982;28;35929;-64
2024/03/10 03:04:58;;;;;;;45.63;27.90;;;;;;;-146.25;100.00;52497.97;2097490;28;20803;-65
2024/03/10 03:06:00;;;;;;;53.67;29.38;;;;;;;-146.25;100.00;52504.03;2096785;28;36345;-64
2024/03/10 03:07:02;;;;;;;49.72;29.42;;;;;;;-146.25;100.00;52508.09;2096817;28;31040;-64
2024/03/10 03:08:04;;;;;;;49.38;28.40;;;;;;;-146.25;100.00;52514.19;2097265;28;30855;-65
2024/03/10 03:09:07;;;;;;;49.08;29.85;;;;;;;-146.25;100.00;52510.13;2096817;28;36706;-64
2024/03/10 03:10:12;;;;;;;50.03;29.27;;;;;;;-146.25;100.00;52526.34;2097929;28;20029;-65
2024/03/10 03:11:15;;;;;;;51.30;28.48;;;;;;;-146.25;100.00;52506.06;2096414;28;35387;-65
2024/03/10 03:12:17;;;;;;;49.28;29.23;;;;;;;-146.25;100.00;52471.59;2097271;28;35950;-64
2024/03/10 03:13:21;;;;;;;50.00;29.27;;;;;;;-146.25;100.00;52520.28;2088468;28;21084;-64
2024/03/10 03:14:23;;;;;;;48.67;29.48;;;;;;;-146.25;100.00;52502.03;2088572;28;38016;-65
2024/03/10 03:15:25;;;;;;;51.40;30.08;;;;;;;-146.25;100.00;52502.03;2096821;28;32709;-64
2024/03/10 03:16:29;;;;;;;48.22;27.85;;;;;;;-146.25;100.00;52493.91;2097179;28;32557;-64
2024/03/10 03:17:31;;;;;;;48.58;29.15;;;;;;;-146.25;100.00;52540.53;2097007;28;29634;-65
2024/03/10 03:18:33;;;;;;;52.58;29.13;;;;;;;-146.25;100.00;52502.03;2097257;28;33243;-65
2024/03/10 03:19:36;;;;;;;51.90;30.05;;;;;;;-146.25;100.00;52518.25;2096586;28;37698;-64
2024/03/10 03:20:42;;;;;;;50.15;29.63;;;;;;;-146.25;100.00;52532.44;2088298;28;20961;-64
2024/03/10 03:21:44;;;;;;;48.28;28.90;;;;;;;-146.25;100.00;52514.19;2080052;28;36070;-65
2024/03/10 03:22:47;;;;;;;52.85;29.42;;;;;;;-146.25;100.00;52491.88;2088603;28;32849;-65
2024/03/10 03:23:49;;;;;;;51.63;29.55;;;;;;;-146.25;100.00;52512.16;2087362;28;36427;-64
2024/03/10 03:24:51;;;;;;;49.42;29.67;;;;;;;-146.25;100.00;52542.56;2088652;28;37368;-63
2024/03/10 03:25:53;;;;;;;52.00;31.15;;;;;;;-146.25;100.00;52512.16;2096498;28;34577;-64
2024/03/10 03:26:57;;;;;;;48.53;29.00;;;;;;;-146.25;100.00;52522.28;2096968;28;34572;-64
2024/03/10 03:27:59;;;;;;;52.58;29.95;;;;;;;-146.25;100.00;52502.03;2096955;28;22488;-64
2024/03/10 03:29:01;;;;;;;53.45;30.20;;;;;;;-146.25;100.00;52522.28;2097165;28;34373;-65
2024/03/10 03:30:06;;;;;;;52.25;31.17;;;;;;;-146.25;100.00;52532.44;2096514;28;37990;-64
2024/03/10 03:31:08;;;;;;;48.55;29.40;;;;;;;-146.25;100.00;52522.28;2096902;28;32602;-64
2024/03/10 03:32:12;;;;;;;52.08;30.25;;;;;;;-146.25;100.00;52520.28;2096788;28;32048;-65
2024/03/10 03:33:14;;;;;;;48.55;28.95;;;;;;;-146.25;100.00;52506.06;2096914;28;36525;-65
2024/03/10 03:34:19;;;;;;;49.40;29.55;;;;;;;-146.25;100.00;52491.88;2096607;28;37569;-64
2024/03/10 03:35:21;;;;;;;51.67;31.08;;;;;;;-146.25;100.00;52536.50;2096916;28;32627;-65
2024/03/10 03:36:23;;;;;;;52.13;28.65;;;;;;;-146.25;100.00;52534.47;2079223;28;37221;-65
2024/03/10 03:37:25;;;;;;;51.95;30.45;;;;;;;-146.25;100.00;52532.44;2080035;28;36417;-64
2024/03/10 03:38:29;;;;;;;53.38;31.17;;;;;;;-146.25;100.00;52495.94;2096671;28;34935;-64
2024/03/10 03:39:32;;;;;;;52.45;30.88;;;;;;;-146.25;100.00;52497.97;2096562;28;31712;-64
2024/03/10 03:40:36;;;;;;;52.50;31.40;;;;;;;-146.25;100.00;52500.00;2096029;28;35493;-65
2024/03/10 03:41:38;;;;;;;50.08;29.35;;;;;;;-146.25;100.00;52518.25;2096498;28;33415;-65
2024/03/10 03:42:40;;;;;;;51.55;29.65;;;;;;;-146.25;100.00;52510.13;2095635;28;36015;-65
2024/03/10 03:43:41;;;;;;;51.70;30.05;;;;;;;-146.25;100.00;52500.00;2096715;28;33585;-64
2024/03/10 03:44:46;;;;;;;50.13;28.92;;;;;;;-146.25;100.00;52506.06;2097659;28;20037;-65
2024/03/10 03:45:49;;;;;;;57.08;31.42;;;;;;;-146.25;100.00;52506.06;2088043;28;35529;-65
2024/03/10 03:46:51;;;;;;;50.60;29.80;;;;;;;-146.25;100.00;52493.91;2088111;28;37298;-64
2024/03/10 03:47:53;;;;;;;52.35;30.67;;;;;;;-146.25;100.00;52528.38;2096824;28;36724;-64
2024/03/10 03:48:58;;;;;;;52.33;30.15;;;;;;;-146.25;100.00;52504.03;2096777;28;20044;-64
2024/03/10 03:50:00;;;;;;;52.20;29.17;;;;;;;-146.25;100.00;52465.53;2096786;28;36274;-65
2024/03/10 03:51:02;;;;;;;52.33;30.48;;;;;;;-146.25;100.00;52483.78;2096120;28;35500;-65
2024/03/10 03:52:07;;;;;;;53.00;31.13;;;;;;;-146.25;100.00;52510.13;2096929;28;34091;-64
2024/03/10 03:53:09;;;;;;;42.92;25.67;;;;;;;-146.25;100.00;52491.88;2096408;28;36972;-65
2024/03/10 03:54:11;;;;;;;58.40;31.15;;;;;;;-146.25;100.00;52477.69;2096978;28;34040;-65
2024/03/10 03:55:12;;;;;;;53.15;30.60;;;;;;;-146.25;100.00;52520.28;2097054;28;32920;-64
2024/03/10 03:56:15;;;;;;;50.85;30.63;;;;;;;-146.25;100.00;52522.28;2096887;28;20111;-65
2024/03/10 03:57:20;;;;;;;52.30;30.48;;;;;;;-146.25;100.00;52540.53;2096184;28;20040;-64
2024/03/10 03:58:22;;;;;;;52.78;30.92;;;;;;;-146.25;100.00;52540.53;2096628;28;31773;-65
2024/03/10 03:59:24;;;;;;;54.45;31.75;;;;;;;-146.25;100.00;52526.34;2096089;28;30706;-65
2024/03/10 04:00:26;;;;;;;54.13;32.13;;;;;;;-146.25;100.00;52522.28;2096939;28;31810;-64
2024/03/10 04:01:28;;;;;;;52.08;31.35;;;;;;;-146.25;100.00;52504.03;2095344;28;34899;-64
2024/03/10 04:02:33;;;;;;;53.15;30.67;;;;;;;-146.25;100.00;52510.13;2095491;28;36181;-65
2024/03/10 04:03:35;;;;;;;53.25;31.48;;;;;;;-146.25;100.00;52500.00;2097032;28;20033;-65
2024/03/10 04:04:40;;;;;;;53.65;31.75;;;;;;;-146.25;100.00;52485.81;2108500;22;36688;-67
2024/03/10 04:05:42;;;;;;;55.55;31.85;;;;;;;-146.25;100.00;52538.53;2099464;28;31565;-66
2024/03/10 04:06:43;;;;;;;53.92;30.67;;;;;;;-146.25;100.00;52453.34;2087836;28;36539;-68
2024/03/10 04:07:46;;;;;;;51.22;30.02;;;;;;;-146.25;100.00;52502.03;2078928;28;34854;-67
2024/03/10 04:08:48;;;;;;;52.45;29.67;;;;;;;-146.25;100.00;52500.00;2079800;28;32765;-68
2024/03/10 04:09:50;;;;;;;54.30;30.67;;;;;;;-146.25;100.00;52534.47;2087626;28;35560;-68
2024/03/10 04:10:52;;;;;;;54.22;32.38;;;;;;;-146.25;100.00;52526.34;2096862;28;35601;-67
2024/03/10 04:11:54;;;;;;;53.40;31.25;;;;;;;-146.25;100.00;52481.75;2096095;28;29053;-68
2024/03/10 04:12:58;;;;;;;57.30;32.47;;;;;;;-146.25;100.00;52518.25;2087631;28;36097;-68
2024/03/10 04:14:00;;;;;;;55.22;31.70;;;;;;;-146.25;100.00;52512.16;2087814;28;30545;-68
2024/03/10 04:15:03;;;;;;;53.40;30.40;;;;;;;-146.25;100.00;52510.13;2089107;28;39076;-68
2024/03/10 04:16:06;;;;;;;53.63;30.00;;;;;;;-146.25;100.00;52530.41;2079646;28;20064;-68
2024/03/10 04:17:08;;;;;;;54.78;31.50;;;;;;;-146.25;100.00;52550.69;2079878;28;34915;-68
2024/03/10 04:18:09;;;;;;;57.47;31.95;;;;;;;-146.25;100.00;52465.53;2079606;28;33240;-68
2024/03/10 04:19:14;;;;;;;55.33;31.30;;;;;;;-146.25;100.00;52502.03;2088378;28;33187;-67
2024/03/10 04:20:17;;;;;;;56.25;32.60;;;;;;;-146.25;100.00;52510.13;2079583;28;20065;-68
2024/03/10 04:21:18;;;;;;;55.78;31.23;;;;;;;-146.25;100.00;52504.03;2079651;28;34151;-68
2024/03/10 04:22:20;;;;;;;58.50;32.53;;;;;;;-146.25;100.00;52522.28;2078771;28;28515;-68
2024/03/10 04:23:23;;;;;;;59.10;31.50;;;;;;;-146.25;100.00;52502.03;2079840;28;33925;-68
2024/03/10 04:24:25;;;;;;;54.13;31.80;;;;;;;-146.25;100.00;52493.91;2088504;28;20111;-68
2024/03/10 04:25:27;;;;;;;51.95;30.77;;;;;;;-146.25;100.00;52514.19;2088872;28;20052;-68
2024/03/10 04:26:29;;;;;;;53.80;31.10;;;;;;;-146.25;100.00;52544.59;2088644;28;20095;-68
2024/03/10 04:27:31;;;;;;;57.45;32.17;;;;;;;-146.25;100.00;52528.38;2079069;28;38050;-69
2024/03/10 04:28:33;;;;;;;53.40;32.50;;;;;;;-146.25;100.00;52528.38;2079217;28;32754;-69
2024/03/10 04:29:36;;;;;;;58.40;32.20;;;;;;;-146.25;100.00;52506.06;2088975;28;20076;-68
2024/03/10 04:30:37;;;;;;;57.63;32.88;;;;;;;-146.25;100.00;52548.66;2088009;28;25120;-68
2024/03/10 04:31:40;;;;;;;54.17;31.83;;;;;;;-146.25;100.00;52534.47;2079085;28;41126;-68
2024/03/10 04:32:41;;;;;;;56.42;31.40;;;;;;;-146.25;100.00;52493.91;2080138;28;20174;-68
2024/03/10 04:33:43;;;;;;;55.90;32.80;;;;;;;-146.25;100.00;52518.25;2079366;28;37045;-69
2024/03/10 04:34:46;;;;;;;55.42;31.70;;;;;;;-146.25;100.00;52524.31;2071093;28;34283;-69
2024/03/10 04:35:48;;;;;;;57.58;31.98;;;;;;;-146.25;100.00;52495.94;2075035;28;20104;-67
2024/03/10 04:36:50;;;;;;;55.88;31.40;;;;;;;-146.25;100.00;52485.81;2078764;28;42469;-67
2024/03/10 04:37:53;;;;;;;57.38;32.90;;;;;;;-146.25;100.00;52495.94;2087796;28;32456;-70
2024/03/10 04:38:59;;;;;;;56.22;32.90;;;;;;;-146.25;100.00;52512.16;2087323;28;33829;-68
2024/03/10 04:40:01;;;;;;;57.58;32.75;;;;;;;-146.25;100.00;52510.13;2088108;28;32011;-68
2024/03/10 04:41:04;;;;;;;60.33;32.42;;;;;;;-146.25;100.00;52518.25;2088280;28;29321;-68
2024/03/10 04:42:10;;;;;;;52.42;30.88;;;;;;;-146.25;100.00;52520.28;2088439;28;33083;-68
2024/03/10 04:43:12;;;;;;;56.03;32.00;;;;;;;-146.25;100.00;52493.91;2088047;28;30447;-68
2024/03/10 04:44:14;;;;;;;59.88;32.80;;;;;;;-146.25;100.00;52518.25;2079096;28;38324;-69
2024/03/10 04:45:16;;;;;;;54.75;31.38;;;;;;;-146.25;100.00;52500.00;2079810;28;21053;-69
2024/03/10 04:46:18;;;;;;;57.45;31.83;;;;;;;-146.25;100.00;52481.75;2088217;28;33893;-70
2024/03/10 04:47:20;;;;;;;57.13;31.27;;;;;;;-146.25;100.00;52497.97;2078524;28;27543;-69
2024/03/10 04:48:25;;;;;;;58.40;32.67;;;;;;;-146.25;100.00;52493.91;2079824;28;34101;-68
2024/03/10 04:49:27;;;;;;;54.90;32.72;;;;;;;-146.25;100.00;52510.13;2087661;28;37392;-68
2024/03/10 04:50:32;;;;;;;58.13;32.90;;;;;;;-146.25;100.00;52510.13;2087761;28;34567;-69
2024/03/10 04:51:33;;;;;;;58.17;31.92;;;;;;;-146.25;100.00;52485.81;2087733;28;36180;-68
2024/03/10 04:52:35;;;;;;;58.67;32.47;;;;;;;-146.25;100.00;52495.94;2088555;28;20907;-68
2024/03/10 04:53:37;;;;;;;57.55;32.60;;;;;;;-146.25;100.00;52522.28;2088166;28;31130;-68
2024/03/10 04:54:39;;;;;;;56.90;31.05;;;;;;;-146.25;100.00;52489.84;2071075;28;34148;-68